sensor_id;sensor_type;location;lat;lon;timestamp;pressure;altitude;pressure_sealevel;temperature;humidity
59274;BME280;45044;41.572;24.730;2022-12-18T00:02:20;91905.41;;;8.60;100.00
59274;BME280;45044;41.572;24.730;2022-12-18T00:04:48;91887.47;;;8.62;100.00
59274;BME280;45044;41.572;24.730;2022-12-18T00:07:14;91893.66;;;8.54;100.00
59274;BME280;45044;41.572;24.730;2022-12-18T00:09:41;91899.34;;;8.56;100.00
59274;BME280;45044;41.572;24.730;2022-12-18T00:12:08;91890.69;;;8.55;100.00
59274;BME280;45044;41.572;24.730;2022-12-18T00:14:44;91904.06;;;8.50;100.00
59274;BME280;45044;41.572;24.730;2022-12-18T00:17:11;91906.06;;;8.37;100.00
59274;BME280;45044;41.572;24.730;2022-12-18T00:19:37;91913.22;;;8.40;100.00
59274;BME280;45044;41.572;24.730;2022-12-18T00:22:04;91915.84;;;8.40;100.00
59274;BME280;45044;41.572;24.730;2022-12-18T00:24:32;91914.47;;;8.46;100.00
59274;BME280;45044;41.572;24.730;2022-12-18T00:26:59;91920.13;;;8.48;100.00
59274;BME280;45044;41.572;24.730;2022-12-18T00:29:26;91912.84;;;8.58;100.00
59274;BME280;45044;41.572;24.730;2022-12-18T00:31:59;91926.72;;;8.58;100.00
59274;BME280;45044;41.572;24.730;2022-12-18T00:34:26;91930.88;;;8.59;100.00
59274;BME280;45044;41.572;24.730;2022-12-18T00:36:53;91924.09;;;8.58;100.00
59274;BME280;45044;41.572;24.730;2022-12-18T00:39:20;91928.91;;;8.56;100.00
59274;BME280;45044;41.572;24.730;2022-12-18T00:41:47;91924.81;;;8.39;100.00
59274;BME280;45044;41.572;24.730;2022-12-18T00:44:33;91927.94;;;8.45;100.00
59274;BME280;45044;41.572;24.730;2022-12-18T00:47:00;91933.09;;;8.41;100.00
59274;BME280;45044;41.572;24.730;2022-12-18T00:49:27;91926.19;;;8.33;100.00
59274;BME280;45044;41.572;24.730;2022-12-18T00:51:53;91935.09;;;8.28;100.00
59274;BME280;45044;41.572;24.730;2022-12-18T00:54:21;91931.19;;;8.22;100.00
59274;BME280;45044;41.572;24.730;2022-12-18T00:56:48;91945.63;;;8.32;100.00
59274;BME280;45044;41.572;24.730;2022-12-18T00:59:18;91943.28;;;8.26;100.00
59274;BME280;45044;41.572;24.730;2022-12-18T01:01:46;91946.47;;;8.36;100.00
59274;BME280;45044;41.572;24.730;2022-12-18T01:04:13;91951.97;;;8.31;100.00
59274;BME280;45044;41.572;24.730;2022-12-18T01:06:40;91949.09;;;8.36;100.00
59274;BME280;45044;41.572;24.730;2022-12-18T01:09:07;91938.94;;;8.34;100.00
59274;BME280;45044;41.572;24.730;2022-12-18T01:11:33;91944.94;;;8.35;100.00
59274;BME280;45044;41.572;24.730;2022-12-18T01:14:00;91940.53;;;8.39;100.00
59274;BME280;45044;41.572;24.730;2022-12-18T01:16:27;91944.66;;;8.40;100.00
59274;BME280;45044;41.572;24.730;2022-12-18T01:18:54;91943.44;;;8.34;100.00
59274;BME280;45044;41.572;24.730;2022-12-18T01:21:22;91942.75;;;8.37;100.00
59274;BME280;45044;41.572;24.730;2022-12-18T01:23:54;91935.69;;;8.21;100.00
59274;BME280;45044;41.572;24.730;2022-12-18T01:26:21;91941.09;;;8.29;100.00
59274;BME280;45044;41.572;24.730;2022-12-18T01:28:48;91948.69;;;8.34;100.00
59274;BME280;45044;41.572;24.730;2022-12-18T01:31:23;91940.09;;;8.17;100.00
59274;BME280;45044;41.572;24.730;2022-12-18T01:33:52;91955.50;;;8.02;100.00
59274;BME280;45044;41.572;24.730;2022-12-18T01:38:48;91952.47;;;8.00;100.00
59274;BME280;45044;41.572;24.730;2022-12-18T01:41:18;91947.91;;;7.97;100.00
59274;BME280;45044;41.572;24.730;2022-12-18T01:43:53;91943.09;;;7.99;100.00
59274;BME280;45044;41.572;24.730;2022-12-18T01:46:22;91943.94;;;7.87;100.00
59274;BME280;45044;41.572;24.730;2022-12-18T01:48:52;91946.56;;;7.87;100.00
59274;BME280;45044;41.572;24.730;2022-12-18T01:51:20;91948.44;;;7.87;100.00
59274;BME280;45044;41.572;24.730;2022-12-18T01:53:48;91941.66;;;7.86;100.00
59274;BME280;45044;41.572;24.730;2022-12-18T01:56:17;91938.53;;;7.80;100.00
59274;BME280;45044;41.572;24.730;2022-12-18T01:59:06;91932.72;;;7.71;100.00
59274;BME280;45044;41.572;24.730;2022-12-18T02:01:37;91946.22;;;7.73;100.00
59274;BME280;45044;41.572;24.730;2022-12-18T02:04:30;91946.31;;;7.44;100.00
59274;BME280;45044;41.572;24.730;2022-12-18T02:09:29;91948.09;;;7.40;100.00
59274;BME280;45044;41.572;24.730;2022-12-18T02:12:00;91945.81;;;7.22;100.00
59274;BME280;45044;41.572;24.730;2022-12-18T02:19:52;91948.09;;;7.40;100.00
59274;BME280;45044;41.572;24.730;2022-12-18T02:27:50;91950.31;;;7.38;100.00
59274;BME280;45044;41.572;24.730;2022-12-18T02:30:18;91941.78;;;7.25;100.00
59274;BME280;45044;41.572;24.730;2022-12-18T02:32:49;91941.69;;;7.21;100.00
59274;BME280;45044;41.572;24.730;2022-12-18T02:35:24;91937.19;;;7.22;100.00
59274;BME280;45044;41.572;24.730;2022-12-18T02:37:53;91943.00;;;7.15;100.00
59274;BME280;45044;41.572;24.730;2022-12-18T02:40:23;91945.13;;;7.25;100.00
59274;BME280;45044;41.572;24.730;2022-12-18T02:42:51;91942.84;;;7.07;100.00
59274;BME280;45044;41.572;24.730;2022-12-18T02:45:17;91944.47;;;7.12;100.00
59274;BME280;45044;41.572;24.730;2022-12-18T02:47:47;91941.22;;;7.03;100.00
59274;BME280;45044;41.572;24.730;2022-12-18T02:52:48;91948.75;;;7.04;100.00
59274;BME280;45044;41.572;24.730;2022-12-18T02:58:16;91960.88;;;7.13;100.00
59274;BME280;45044;41.572;24.730;2022-12-18T03:03:43;91962.97;;;7.07;100.00
59274;BME280;45044;41.572;24.730;2022-12-18T03:08:44;91963.94;;;7.15;100.00
59274;BME280;45044;41.572;24.730;2022-12-18T03:11:13;91959.47;;;7.15;100.00
59274;BME280;45044;41.572;24.730;2022-12-18T03:13:43;91965.22;;;7.21;100.00
59274;BME280;45044;41.572;24.730;2022-12-18T03:16:15;91969.78;;;7.24;100.00
59274;BME280;45044;41.572;24.730;2022-12-18T03:18:47;91963.03;;;7.23;100.00
59274;BME280;45044;41.572;24.730;2022-12-18T03:21:19;91964.53;;;7.24;100.00
59274;BME280;45044;41.572;24.730;2022-12-18T03:23:49;91974.56;;;7.22;100.00
59274;BME280;45044;41.572;24.730;2022-12-18T03:26:20;91960.72;;;7.22;100.00
59274;BME280;45044;41.572;24.730;2022-12-18T03:28:56;91971.09;;;7.18;100.00
59274;BME280;45044;41.572;24.730;2022-12-18T03:31:27;91967.16;;;7.24;100.00
59274;BME280;45044;41.572;24.730;2022-12-18T03:33:58;91974.06;;;7.33;100.00
59274;BME280;45044;41.572;24.730;2022-12-18T03:36:26;91975.34;;;7.39;100.00
59274;BME280;45044;41.572;24.730;2022-12-18T03:38:53;91975.44;;;7.42;100.00
59274;BME280;45044;41.572;24.730;2022-12-18T03:41:36;91973.34;;;7.48;100.00
59274;BME280;45044;41.572;24.730;2022-12-18T03:53:02;91987.66;;;7.38;100.00
59274;BME280;45044;41.572;24.730;2022-12-18T03:55:33;91986.16;;;7.37;100.00
59274;BME280;45044;41.572;24.730;2022-12-18T03:58:03;91987.31;;;7.40;100.00
59274;BME280;45044;41.572;24.730;2022-12-18T04:00:31;91988.69;;;7.34;100.00
59274;BME280;45044;41.572;24.730;2022-12-18T04:03:00;91990.63;;;7.37;100.00
59274;BME280;45044;41.572;24.730;2022-12-18T04:05:28;91986.41;;;7.03;100.00
59274;BME280;45044;41.572;24.730;2022-12-18T04:07:57;91991.09;;;6.81;100.00
59274;BME280;45044;41.572;24.730;2022-12-18T04:10:24;92002.97;;;7.07;100.00
59274;BME280;45044;41.572;24.730;2022-12-18T04:12:50;91996.66;;;7.09;100.00
59274;BME280;45044;41.572;24.730;2022-12-18T04:15:21;92003.59;;;7.17;100.00
59274;BME280;45044;41.572;24.730;2022-12-18T04:17:49;92002.72;;;7.13;100.00
59274;BME280;45044;41.572;24.730;2022-12-18T04:20:16;92001.97;;;7.12;100.00
59274;BME280;45044;41.572;24.730;2022-12-18T04:22:43;92008.44;;;7.02;100.00
59274;BME280;45044;41.572;24.730;2022-12-18T04:25:10;92001.50;;;6.94;100.00
59274;BME280;45044;41.572;24.730;2022-12-18T04:27:36;92007.50;;;6.53;100.00
59274;BME280;45044;41.572;24.730;2022-12-18T04:30:03;92004.06;;;6.78;100.00
59274;BME280;45044;41.572;24.730;2022-12-18T04:32:30;92005.56;;;6.79;100.00
59274;BME280;45044;41.572;24.730;2022-12-18T04:34:57;91995.22;;;6.82;100.00
59274;BME280;45044;41.572;24.730;2022-12-18T04:37:24;92004.16;;;6.81;100.00
59274;BME280;45044;41.572;24.730;2022-12-18T04:39:51;92011.78;;;6.87;100.00
59274;BME280;45044;41.572;24.730;2022-12-18T04:42:17;92005.00;;;6.86;100.00
59274;BME280;45044;41.572;24.730;2022-12-18T04:44:44;92014.16;;;6.92;100.00
59274;BME280;45044;41.572;24.730;2022-12-18T04:47:11;92017.94;;;6.94;100.00
59274;BME280;45044;41.572;24.730;2022-12-18T04:49:37;92022.63;;;7.01;100.00
59274;BME280;45044;41.572;24.730;2022-12-18T04:52:04;92028.25;;;7.03;100.00
59274;BME280;45044;41.572;24.730;2022-12-18T04:54:31;92027.16;;;7.04;100.00
59274;BME280;45044;41.572;24.730;2022-12-18T04:56:58;92035.59;;;6.98;100.00
59274;BME280;45044;41.572;24.730;2022-12-18T04:59:24;92034.91;;;7.01;100.00
59274;BME280;45044;41.572;24.730;2022-12-18T05:01:51;92037.19;;;7.02;100.00
59274;BME280;45044;41.572;24.730;2022-12-18T05:04:18;92036.22;;;6.94;100.00
59274;BME280;45044;41.572;24.730;2022-12-18T05:06:45;92017.22;;;6.81;100.00
59274;BME280;45044;41.572;24.730;2022-12-18T05:09:12;92041.56;;;6.98;100.00
59274;BME280;45044;41.572;24.730;2022-12-18T05:11:39;92048.00;;;7.01;100.00
59274;BME280;45044;41.572;24.730;2022-12-18T05:14:06;92046.19;;;6.89;100.00
59274;BME280;45044;41.572;24.730;2022-12-18T05:16:32;92067.19;;;6.92;100.00
59274;BME280;45044;41.572;24.730;2022-12-18T05:19:00;92067.75;;;6.73;100.00
59274;BME280;45044;41.572;24.730;2022-12-18T05:21:26;92077.56;;;6.64;100.00
59274;BME280;45044;41.572;24.730;2022-12-18T05:23:53;92078.25;;;6.61;100.00
59274;BME280;45044;41.572;24.730;2022-12-18T05:26:20;92079.34;;;6.59;100.00
59274;BME280;45044;41.572;24.730;2022-12-18T05:28:47;92086.94;;;6.65;100.00
59274;BME280;45044;41.572;24.730;2022-12-18T05:31:14;92086.94;;;6.65;100.00
59274;BME280;45044;41.572;24.730;2022-12-18T05:33:41;92080.63;;;6.66;100.00
59274;BME280;45044;41.572;24.730;2022-12-18T05:36:09;92085.63;;;6.58;100.00
59274;BME280;45044;41.572;24.730;2022-12-18T05:38:38;92100.66;;;6.37;100.00
59274;BME280;45044;41.572;24.730;2022-12-18T05:41:05;92101.53;;;6.53;100.00
59274;BME280;45044;41.572;24.730;2022-12-18T05:43:34;92091.97;;;6.57;100.00
59274;BME280;45044;41.572;24.730;2022-12-18T05:46:13;92096.53;;;6.48;100.00
59274;BME280;45044;41.572;24.730;2022-12-18T05:48:41;92103.25;;;6.62;100.00
59274;BME280;45044;41.572;24.730;2022-12-18T05:51:14;92115.03;;;6.30;100.00
59274;BME280;45044;41.572;24.730;2022-12-18T05:53:42;92116.78;;;6.26;100.00
59274;BME280;45044;41.572;24.730;2022-12-18T05:56:15;92112.44;;;6.18;100.00
59274;BME280;45044;41.572;24.730;2022-12-18T05:58:42;92112.63;;;6.13;100.00
59274;BME280;45044;41.572;24.730;2022-12-18T06:01:15;92118.59;;;6.13;100.00
59274;BME280;45044;41.572;24.730;2022-12-18T06:03:43;92125.03;;;6.16;100.00
59274;BME280;45044;41.572;24.730;2022-12-18T06:06:20;92131.38;;;5.93;100.00
59274;BME280;45044;41.572;24.730;2022-12-18T06:08:47;92131.72;;;5.92;100.00
59274;BME280;45044;41.572;24.730;2022-12-18T06:11:18;92135.84;;;5.93;100.00
59274;BME280;45044;41.572;24.730;2022-12-18T06:13:45;92142.88;;;6.14;100.00
59274;BME280;45044;41.572;24.730;2022-12-18T06:16:13;92138.94;;;6.20;100.00
59274;BME280;45044;41.572;24.730;2022-12-18T06:18:40;92143.66;;;6.27;100.00
59274;BME280;45044;41.572;24.730;2022-12-18T06:21:07;92128.84;;;6.31;100.00
59274;BME280;45044;41.572;24.730;2022-12-18T06:23:35;92141.81;;;6.52;100.00
59274;BME280;45044;41.572;24.730;2022-12-18T06:26:08;92142.25;;;6.67;100.00
59274;BME280;45044;41.572;24.730;2022-12-18T06:28:35;92142.00;;;6.47;100.00
59274;BME280;45044;41.572;24.730;2022-12-18T06:31:03;92151.59;;;6.30;100.00
59274;BME280;45044;41.572;24.730;2022-12-18T06:33:30;92155.94;;;6.39;100.00
59274;BME280;45044;41.572;24.730;2022-12-18T06:36:11;92157.34;;;6.23;100.00
59274;BME280;45044;41.572;24.730;2022-12-18T06:38:40;92172.59;;;6.21;100.00
59274;BME280;45044;41.572;24.730;2022-12-18T06:41:11;92173.47;;;6.51;100.00
59274;BME280;45044;41.572;24.730;2022-12-18T06:43:38;92174.25;;;6.76;100.00
59274;BME280;45044;41.572;24.730;2022-12-18T06:46:05;92172.81;;;7.04;100.00
59274;BME280;45044;41.572;24.730;2022-12-18T06:48:33;92174.66;;;7.16;100.00
59274;BME280;45044;41.572;24.730;2022-12-18T06:50:59;92170.13;;;7.41;100.00
59274;BME280;45044;41.572;24.730;2022-12-18T06:53:27;92180.50;;;7.38;100.00
59274;BME280;45044;41.572;24.730;2022-12-18T06:56:04;92177.88;;;7.38;100.00
59274;BME280;45044;41.572;24.730;2022-12-18T06:58:37;92174.44;;;7.21;100.00
59274;BME280;45044;41.572;24.730;2022-12-18T07:01:05;92181.63;;;7.12;100.00
59274;BME280;45044;41.572;24.730;2022-12-18T07:03:33;92177.06;;;7.09;100.00
59274;BME280;45044;41.572;24.730;2022-12-18T07:06:00;92188.56;;;7.33;100.00
59274;BME280;45044;41.572;24.730;2022-12-18T07:08:28;92189.34;;;7.62;100.00
59274;BME280;45044;41.572;24.730;2022-12-18T07:10:55;92185.69;;;7.79;100.00
59274;BME280;45044;41.572;24.730;2022-12-18T07:13:22;92193.16;;;7.93;100.00
59274;BME280;45044;41.572;24.730;2022-12-18T07:15:49;92187.50;;;7.91;100.00
59274;BME280;45044;41.572;24.730;2022-12-18T07:18:16;92195.28;;;8.03;100.00
59274;BME280;45044;41.572;24.730;2022-12-18T07:20:42;92185.56;;;7.88;100.00
59274;BME280;45044;41.572;24.730;2022-12-18T07:23:11;92192.41;;;7.64;100.00
59274;BME280;45044;41.572;24.730;2022-12-18T07:25:38;92191.63;;;7.63;100.00
59274;BME280;45044;41.572;24.730;2022-12-18T07:28:05;92197.63;;;7.64;100.00
59274;BME280;45044;41.572;24.730;2022-12-18T07:30:37;92194.28;;;7.92;100.00
59274;BME280;45044;41.572;24.730;2022-12-18T07:33:08;92195.34;;;7.91;100.00
59274;BME280;45044;41.572;24.730;2022-12-18T07:35:35;92200.03;;;7.98;100.00
59274;BME280;45044;41.572;24.730;2022-12-18T07:38:02;92197.78;;;7.84;100.00
59274;BME280;45044;41.572;24.730;2022-12-18T07:40:28;92203.72;;;7.68;100.00
59274;BME280;45044;41.572;24.730;2022-12-18T07:42:55;92210.84;;;7.55;100.00
59274;BME280;45044;41.572;24.730;2022-12-18T07:45:24;92199.16;;;7.65;100.00
59274;BME280;45044;41.572;24.730;2022-12-18T07:47:51;92207.53;;;7.71;100.00
59274;BME280;45044;41.572;24.730;2022-12-18T07:50:18;92205.19;;;7.82;100.00
59274;BME280;45044;41.572;24.730;2022-12-18T07:52:45;92212.34;;;7.97;100.00
59274;BME280;45044;41.572;24.730;2022-12-18T07:55:12;92201.53;;;7.99;100.00
59274;BME280;45044;41.572;24.730;2022-12-18T07:57:39;92215.53;;;8.19;100.00
59274;BME280;45044;41.572;24.730;2022-12-18T08:00:17;92220.28;;;8.30;100.00
59274;BME280;45044;41.572;24.730;2022-12-18T08:02:46;92218.44;;;8.46;100.00
59274;BME280;45044;41.572;24.730;2022-12-18T08:05:14;92221.56;;;8.52;100.00
59274;BME280;45044;41.572;24.730;2022-12-18T08:07:40;92227.84;;;8.63;100.00
59274;BME280;45044;41.572;24.730;2022-12-18T08:10:07;92228.66;;;8.51;100.00
59274;BME280;45044;41.572;24.730;2022-12-18T08:12:34;92234.03;;;8.71;100.00
59274;BME280;45044;41.572;24.730;2022-12-18T08:15:01;92240.03;;;8.72;100.00
59274;BME280;45044;41.572;24.730;2022-12-18T08:17:28;92241.13;;;8.71;100.00
59274;BME280;45044;41.572;24.730;2022-12-18T08:19:55;92240.69;;;8.69;100.00
59274;BME280;45044;41.572;24.730;2022-12-18T08:22:21;92239.06;;;8.48;100.00
59274;BME280;45044;41.572;24.730;2022-12-18T08:24:48;92245.22;;;8.39;100.00
59274;BME280;45044;41.572;24.730;2022-12-18T08:27:15;92245.13;;;8.36;100.00
59274;BME280;45044;41.572;24.730;2022-12-18T08:29:57;92251.66;;;8.42;100.00
59274;BME280;45044;41.572;24.730;2022-12-18T08:32:25;92247.66;;;8.32;100.00
59274;BME280;45044;41.572;24.730;2022-12-18T08:34:52;92249.69;;;8.39;100.00
59274;BME280;45044;41.572;24.730;2022-12-18T08:37:19;92245.63;;;8.42;100.00
59274;BME280;45044;41.572;24.730;2022-12-18T08:39:46;92241.84;;;8.55;100.00
59274;BME280;45044;41.572;24.730;2022-12-18T08:42:12;92241.44;;;8.53;100.00
59274;BME280;45044;41.572;24.730;2022-12-18T08:44:58;92239.41;;;8.46;100.00
59274;BME280;45044;41.572;24.730;2022-12-18T08:47:25;92243.06;;;8.58;100.00
59274;BME280;45044;41.572;24.730;2022-12-18T08:49:52;92246.88;;;8.77;100.00
59274;BME280;45044;41.572;24.730;2022-12-18T08:52:19;92236.72;;;8.91;100.00
59274;BME280;45044;41.572;24.730;2022-12-18T08:54:46;92243.75;;;9.03;100.00
59274;BME280;45044;41.572;24.730;2022-12-18T08:57:13;92235.88;;;9.19;100.00
59274;BME280;45044;41.572;24.730;2022-12-18T08:59:40;92233.72;;;9.25;100.00
59274;BME280;45044;41.572;24.730;2022-12-18T09:02:10;92229.69;;;9.48;100.00
59274;BME280;45044;41.572;24.730;2022-12-18T09:04:37;92232.78;;;9.33;100.00
59274;BME280;45044;41.572;24.730;2022-12-18T09:07:04;92232.91;;;9.21;100.00
59274;BME280;45044;41.572;24.730;2022-12-18T09:09:30;92234.06;;;9.23;100.00
59274;BME280;45044;41.572;24.730;2022-12-18T09:11:57;92234.09;;;9.07;100.00
59274;BME280;45044;41.572;24.730;2022-12-18T09:14:24;92233.66;;;9.21;100.00
59274;BME280;45044;41.572;24.730;2022-12-18T09:16:51;92231.94;;;9.29;100.00
59274;BME280;45044;41.572;24.730;2022-12-18T09:19:17;92237.22;;;9.13;100.00
59274;BME280;45044;41.572;24.730;2022-12-18T09:21:44;92217.88;;;8.69;100.00
59274;BME280;45044;41.572;24.730;2022-12-18T09:24:14;92236.31;;;8.73;100.00
59274;BME280;45044;41.572;24.730;2022-12-18T09:26:41;92230.91;;;8.82;100.00
59274;BME280;45044;41.572;24.730;2022-12-18T09:29:13;92236.13;;;8.82;100.00
59274;BME280;45044;41.572;24.730;2022-12-18T09:31:41;92232.16;;;8.88;100.00
59274;BME280;45044;41.572;24.730;2022-12-18T09:34:08;92224.81;;;8.94;100.00
59274;BME280;45044;41.572;24.730;2022-12-18T09:36:35;92220.06;;;9.00;100.00
59274;BME280;45044;41.572;24.730;2022-12-18T09:39:03;92222.75;;;9.19;100.00
59274;BME280;45044;41.572;24.730;2022-12-18T09:49:42;92218.38;;;9.63;100.00
59274;BME280;45044;41.572;24.730;2022-12-18T09:52:15;92213.88;;;9.44;100.00
59274;BME280;45044;41.572;24.730;2022-12-18T09:54:50;92209.97;;;9.54;100.00
59274;BME280;45044;41.572;24.730;2022-12-18T09:57:21;92210.41;;;9.40;100.00
59274;BME280;45044;41.572;24.730;2022-12-18T09:59:53;92201.72;;;9.36;100.00
59274;BME280;45044;41.572;24.730;2022-12-18T10:02:23;92213.25;;;9.51;100.00
59274;BME280;45044;41.572;24.730;2022-12-18T10:05:04;92213.56;;;9.65;100.00
59274;BME280;45044;41.572;24.730;2022-12-18T10:07:53;92211.84;;;9.73;100.00
59274;BME280;45044;41.572;24.730;2022-12-18T10:15:51;92213.03;;;9.40;100.00
59274;BME280;45044;41.572;24.730;2022-12-18T10:18:39;92218.22;;;9.36;100.00
59274;BME280;45044;41.572;24.730;2022-12-18T10:21:16;92214.66;;;9.64;100.00
59274;BME280;45044;41.572;24.730;2022-12-18T10:26:17;92213.09;;;9.79;100.00
59274;BME280;45044;41.572;24.730;2022-12-18T10:28:45;92211.75;;;9.89;100.00
59274;BME280;45044;41.572;24.730;2022-12-18T10:31:16;92211.00;;;9.89;100.00
59274;BME280;45044;41.572;24.730;2022-12-18T10:33:44;92206.16;;;9.91;100.00
59274;BME280;45044;41.572;24.730;2022-12-18T10:36:10;92209.13;;;9.69;100.00
59274;BME280;45044;41.572;24.730;2022-12-18T10:38:38;92212.38;;;9.43;100.00
59274;BME280;45044;41.572;24.730;2022-12-18T10:41:25;92218.75;;;9.81;100.00
59274;BME280;45044;41.572;24.730;2022-12-18T10:44:30;92219.44;;;9.98;100.00
59274;BME280;45044;41.572;24.730;2022-12-18T10:47:04;92209.13;;;9.89;100.00
59274;BME280;45044;41.572;24.730;2022-12-18T10:49:49;92222.91;;;10.02;100.00
59274;BME280;45044;41.572;24.730;2022-12-18T10:52:25;92220.88;;;10.15;100.00
59274;BME280;45044;41.572;24.730;2022-12-18T10:54:58;92215.63;;;10.15;100.00
59274;BME280;45044;41.572;24.730;2022-12-18T10:57:38;92213.81;;;10.19;100.00
59274;BME280;45044;41.572;24.730;2022-12-18T11:00:33;92218.81;;;10.05;100.00
59274;BME280;45044;41.572;24.730;2022-12-18T11:03:02;92174.72;;;9.75;100.00
59274;BME280;45044;41.572;24.730;2022-12-18T11:05:30;92210.25;;;9.88;100.00
59274;BME280;45044;41.572;24.730;2022-12-18T11:07:58;92210.38;;;9.96;100.00
59274;BME280;45044;41.572;24.730;2022-12-18T11:10:31;92184.41;;;9.90;100.00
59274;BME280;45044;41.572;24.730;2022-12-18T11:13:23;92199.38;;;10.10;100.00
59274;BME280;45044;41.572;24.730;2022-12-18T11:15:51;92196.47;;;10.15;100.00
59274;BME280;45044;41.572;24.730;2022-12-18T11:18:28;92196.13;;;9.97;100.00
59274;BME280;45044;41.572;24.730;2022-12-18T11:21:05;92201.81;;;9.79;100.00
59274;BME280;45044;41.572;24.730;2022-12-18T11:23:35;92200.56;;;9.73;100.00
59274;BME280;45044;41.572;24.730;2022-12-18T11:26:04;92198.78;;;9.57;100.00
59274;BME280;45044;41.572;24.730;2022-12-18T11:28:38;92199.41;;;9.50;100.00
59274;BME280;45044;41.572;24.730;2022-12-18T11:33:47;92203.88;;;9.50;100.00
59274;BME280;45044;41.572;24.730;2022-12-18T11:36:47;92191.91;;;9.32;100.00
59274;BME280;45044;41.572;24.730;2022-12-18T11:42:09;92193.66;;;9.44;100.00
59274;BME280;45044;41.572;24.730;2022-12-18T11:50:00;92197.78;;;9.85;100.00
59274;BME280;45044;41.572;24.730;2022-12-18T11:52:33;92200.22;;;9.74;100.00
59274;BME280;45044;41.572;24.730;2022-12-18T11:55:35;92202.97;;;9.81;100.00
59274;BME280;45044;41.572;24.730;2022-12-18T11:58:15;92209.34;;;9.80;100.00
59274;BME280;45044;41.572;24.730;2022-12-18T12:12:24;92207.06;;;9.79;100.00
59274;BME280;45044;41.572;24.730;2022-12-18T12:15:03;92216.47;;;9.80;100.00
59274;BME280;45044;41.572;24.730;2022-12-18T12:17:48;92218.88;;;9.69;100.00
59274;BME280;45044;41.572;24.730;2022-12-18T12:23:26;92218.19;;;9.52;100.00
59274;BME280;45044;41.572;24.730;2022-12-18T12:26:26;92215.00;;;9.43;100.00
59274;BME280;45044;41.572;24.730;2022-12-18T12:29:21;92214.78;;;9.32;100.00
59274;BME280;45044;41.572;24.730;2022-12-18T12:32:04;92220.97;;;9.43;100.00
59274;BME280;45044;41.572;24.730;2022-12-18T12:37:07;92223.91;;;9.58;100.00
59274;BME280;45044;41.572;24.730;2022-12-18T12:39:40;92216.53;;;9.64;100.00
59274;BME280;45044;41.572;24.730;2022-12-18T12:42:18;92218.72;;;9.62;100.00
59274;BME280;45044;41.572;24.730;2022-12-18T12:45:05;92223.25;;;9.61;100.00
59274;BME280;45044;41.572;24.730;2022-12-18T12:47:38;92221.22;;;9.74;100.00
59274;BME280;45044;41.572;24.730;2022-12-18T12:50:18;92218.06;;;9.65;100.00
59274;BME280;45044;41.572;24.730;2022-12-18T12:52:52;92218.00;;;9.61;100.00
59274;BME280;45044;41.572;24.730;2022-12-18T12:55:22;92230.97;;;9.74;100.00
59274;BME280;45044;41.572;24.730;2022-12-18T13:00:22;92225.72;;;9.74;100.00
59274;BME280;45044;41.572;24.730;2022-12-18T13:08:02;92225.84;;;9.41;100.00
59274;BME280;45044;41.572;24.730;2022-12-18T13:10:36;92230.09;;;9.30;100.00
59274;BME280;45044;41.572;24.730;2022-12-18T13:13:14;92241.44;;;9.34;100.00
59274;BME280;45044;41.572;24.730;2022-12-18T13:16:05;92228.56;;;9.29;100.00
59274;BME280;45044;41.572;24.730;2022-12-18T13:18:33;92233.94;;;9.36;100.00
59274;BME280;45044;41.572;24.730;2022-12-18T13:31:14;92246.38;;;9.19;100.00
59274;BME280;45044;41.572;24.730;2022-12-18T13:33:45;92243.59;;;9.12;100.00
59274;BME280;45044;41.572;24.730;2022-12-18T13:36:33;92245.16;;;9.17;100.00
59274;BME280;45044;41.572;24.730;2022-12-18T13:44:33;92234.03;;;8.71;100.00
59274;BME280;45044;41.572;24.730;2022-12-18T13:47:34;92253.31;;;8.79;100.00
59274;BME280;45044;41.572;24.730;2022-12-18T13:50:20;92259.81;;;8.85;100.00
59274;BME280;45044;41.572;24.730;2022-12-18T13:52:47;92268.72;;;8.81;100.00
59274;BME280;45044;41.572;24.730;2022-12-18T13:55:18;92263.22;;;8.86;100.00
59274;BME280;45044;41.572;24.730;2022-12-18T13:57:45;92271.59;;;8.76;100.00
59274;BME280;45044;41.572;24.730;2022-12-18T14:02:49;92261.50;;;8.61;100.00
59274;BME280;45044;41.572;24.730;2022-12-18T14:05:35;92267.13;;;8.47;100.00
59274;BME280;45044;41.572;24.730;2022-12-18T14:08:10;92274.72;;;8.53;100.00
59274;BME280;45044;41.572;24.730;2022-12-18T14:10:42;92275.88;;;8.68;100.00
59274;BME280;45044;41.572;24.730;2022-12-18T14:13:32;92278.56;;;8.55;100.00
59274;BME280;45044;41.572;24.730;2022-12-18T14:16:02;92282.88;;;8.63;100.00
59274;BME280;45044;41.572;24.730;2022-12-18T14:19:11;92290.44;;;8.53;100.00
59274;BME280;45044;41.572;24.730;2022-12-18T14:21:48;92285.63;;;8.55;100.00
59274;BME280;45044;41.572;24.730;2022-12-18T14:24:20;92294.88;;;8.48;100.00
59274;BME280;45044;41.572;24.730;2022-12-18T14:26:48;92298.91;;;8.46;100.00
59274;BME280;45044;41.572;24.730;2022-12-18T14:29:28;92296.69;;;8.32;100.00
59274;BME280;45044;41.572;24.730;2022-12-18T14:34:45;92304.78;;;8.26;100.00
59274;BME280;45044;41.572;24.730;2022-12-18T14:37:15;92307.84;;;8.16;100.00
59274;BME280;45044;41.572;24.730;2022-12-18T14:39:53;92308.75;;;8.08;100.00
59274;BME280;45044;41.572;24.730;2022-12-18T14:42:20;92309.22;;;7.97;100.00
59274;BME280;45044;41.572;24.730;2022-12-18T14:44:47;92302.91;;;7.98;100.00
59274;BME280;45044;41.572;24.730;2022-12-18T14:47:34;92310.84;;;8.02;100.00
59274;BME280;45044;41.572;24.730;2022-12-18T14:50:01;92317.31;;;7.92;100.00
59274;BME280;45044;41.572;24.730;2022-12-18T14:52:29;92314.38;;;7.94;100.00
59274;BME280;45044;41.572;24.730;2022-12-18T14:54:57;92315.69;;;7.87;100.00
59274;BME280;45044;41.572;24.730;2022-12-18T14:57:28;92317.25;;;7.76;100.00
59274;BME280;45044;41.572;24.730;2022-12-18T15:00:10;92309.19;;;7.43;100.00